Voskresensk, Russia
Current Conditions -  °F | °C
As of 11:30 PM on Friday 28 Nov 2014 (Local Time) from UUWW Reporting Station
Broken Clouds Broken Clouds  
Wind Chill:   Ceiling: 10000
Heat Index: 16°   Visibility: 5mi
Dew Point: 14°   Wind: 7mph
Humidity: 93%   Direction: 90°E
Pressure: 30.56"   Gusts: NA
Location:  55.27°N, 36.74°E
Report Text: UUWW 282030Z 09003MPS 8000 BKN100 M09/M10 Q1035 06290050 NOSIG
Loading
Personal Weather Stations






























Interactive Weather Map New forecast layout! Learn more

10-Day Weather Forecast

Advertisements
Track Severe Weather on mobile